Time;durP1;ratioP1;P1;durP2;ratioP2;P2;SDS_P1;SDS_P2;PMS_P1;PMS_P2;Temp;Humidity;BMP_temperature;BMP_pressure;BME280_temperature;BME280_humidity;BME280_pressure;Samples;Min_cycle;Max_cycle;Signal;HPM_P1;HPM_P2
2021/12/04 00:02:05;;;;;;;1.80;1.80;;;;;;;0.75;55.89;99682.09;102643;1314;95105;-78
2021/12/04 00:04:36;;;;;;;1.80;1.80;;;;;;;0.70;55.83;99681.40;102410;1315;108810;-78
2021/12/04 00:07:07;;;;;;;1.80;1.80;;;;;;;0.69;56.17;99681.39;102240;1317;107884;-77
2021/12/04 00:09:35;;;;;;;1.90;1.90;;;;;;;0.63;56.29;99686.08;102472;1316;94214;-76
2021/12/04 00:12:05;;;;;;;1.70;1.70;;;;;;;0.69;56.08;99681.21;102452;1313;94355;-78
2021/12/04 00:14:35;;;;;;;1.80;1.80;;;;;;;0.73;56.19;99685.23;102400;1316;107732;-76
2021/12/04 00:17:04;;;;;;;1.80;1.80;;;;;;;0.73;56.06;99687.69;102674;1314;106445;-78
2021/12/04 00:19:33;;;;;;;1.60;1.60;;;;;;;0.73;56.03;99688.03;102623;1313;94838;-77
2021/12/04 00:22:02;;;;;;;1.60;1.60;;;;;;;0.74;56.22;99682.79;102471;1316;94967;-78
2021/12/04 00:24:30;;;;;;;1.70;1.70;;;;;;;0.70;56.31;99684.35;102520;1312;108728;-77
2021/12/04 00:26:58;;;;;;;1.80;1.80;;;;;;;0.73;56.15;99685.06;102413;1314;106513;-78
2021/12/04 00:29:26;;;;;;;1.80;1.80;;;;;;;0.70;56.03;99674.05;102495;1313;95016;-77
2021/12/04 00:32:42;;;;;;;1.90;1.90;;;;;;;0.69;56.35;99670.04;102466;1310;94309;-78
2021/12/04 00:34:53;;;;;;;1.80;1.80;;;;;;;0.67;56.30;99671.60;102396;1316;108810;-78
2021/12/04 00:51:16;;;;;;;1.80;1.80;;;;;;;0.74;56.19;99660.77;102543;1314;94240;-78
2021/12/04 00:53:44;;;;;;;1.90;1.90;;;;;;;0.81;56.01;99659.73;102670;1314;94804;-78
2021/12/04 00:56:12;;;;;;;1.70;1.70;;;;;;;0.79;55.75;99656.41;102535;1312;108951;-78
2021/12/04 00:58:40;;;;;;;1.70;1.70;;;;;;;0.75;55.63;99658.16;102462;1313;108995;-78
2021/12/04 01:01:08;;;;;;;1.90;1.90;;;;;;;0.73;55.79;99656.77;102519;1314;94767;-78
2021/12/04 01:03:37;;;;;;;1.80;1.80;;;;;;;0.71;55.59;99649.59;102655;1315;94313;-78
2021/12/04 01:06:06;;;;;;;1.70;1.70;;;;;;;0.67;55.69;99645.21;102470;1313;109200;-78
2021/12/04 01:08:34;;;;;;;1.80;1.80;;;;;;;0.67;55.65;99646.10;102427;1314;108222;-77
2021/12/04 01:11:03;;;;;;;1.90;1.90;;;;;;;0.66;55.55;99645.91;102368;1313;94574;-78
2021/12/04 01:13:31;;;;;;;1.80;1.80;;;;;;;0.66;55.91;99641.19;102390;1314;94308;-78
2021/12/04 01:15:59;;;;;;;1.80;1.80;;;;;;;0.61;55.92;99640.14;102349;1313;107797;-77
2021/12/04 01:18:28;;;;;;;1.90;1.90;;;;;;;0.56;55.65;99632.98;102536;1312;107468;-78
2021/12/04 01:20:57;;;;;;;1.80;1.80;;;;;;;0.52;56.02;99628.25;102518;1313;94343;-77
2021/12/04 01:23:25;;;;;;;1.80;1.80;;;;;;;0.47;55.85;99617.40;102497;1313;94988;-77
2021/12/04 01:25:53;;;;;;;1.80;1.80;;;;;;;0.46;55.93;99615.66;102494;1313;107852;-78
2021/12/04 01:28:21;;;;;;;1.70;1.70;;;;;;;0.47;55.91;99616.18;102226;1317;108430;-78
2021/12/04 01:30:50;;;;;;;1.80;1.80;;;;;;;0.46;55.95;99612.88;102367;1319;94879;-77
2021/12/04 01:33:18;;;;;;;1.80;1.80;;;;;;;0.44;56.41;99610.25;102441;1316;94369;-77
2021/12/04 01:35:46;;;;;;;1.80;1.80;;;;;;;0.46;56.16;99609.20;102298;1314;106812;-77
2021/12/04 01:38:14;;;;;;;1.70;1.70;;;;;;;0.46;56.26;99604.84;102276;1316;107951;-77
2021/12/04 01:40:43;;;;;;;1.80;1.80;;;;;;;0.47;56.42;99604.65;102363;1317;94814;-77
2021/12/04 01:43:11;;;;;;;1.90;1.90;;;;;;;0.52;56.53;99607.29;102294;1314;94092;-77
2021/12/04 01:45:39;;;;;;;1.90;1.90;;;;;;;0.51;56.55;99607.45;102318;1314;107853;-78
2021/12/04 01:48:07;;;;;;;2.00;2.00;;;;;;;0.45;56.45;99609.02;102382;1312;107558;-78
2021/12/04 01:50:35;;;;;;;1.80;1.80;;;;;;;0.44;57.17;99610.25;102549;1313;94370;-78
2021/12/04 01:53:04;;;;;;;1.80;1.80;;;;;;;0.48;56.94;99610.25;102248;1317;94379;-78
2021/12/04 01:55:35;;;;;;;1.80;1.80;;;;;;;0.47;56.72;99610.07;102489;1316;108907;-77
2021/12/04 01:58:04;;;;;;;1.90;1.90;;;;;;;0.45;56.84;99607.27;102384;1315;107431;-78
2021/12/04 02:00:35;;;;;;;1.80;1.80;;;;;;;0.45;56.93;99603.79;102218;1316;94900;-77
2021/12/04 02:03:07;;;;;;;1.90;1.90;;;;;;;0.43;56.94;99600.65;102646;1316;94787;-78
2021/12/04 02:05:39;;;;;;;2.20;2.10;;;;;;;0.42;57.01;99602.04;102501;1313;108250;-77
2021/12/04 02:08:09;;;;;;;2.00;2.00;;;;;;;0.35;56.79;99603.05;102482;1314;108265;-77
2021/12/04 02:10:37;;;;;;;2.00;2.00;;;;;;;0.37;57.08;99597.84;102481;1314;94743;-78
2021/12/04 02:13:05;;;;;;;1.70;1.70;;;;;;;0.39;57.02;99592.07;102527;1313;94731;-76
2021/12/04 02:15:33;;;;;;;2.20;2.10;;;;;;;0.34;57.42;99584.73;102531;1317;108828;-78
2021/12/04 02:18:03;;;;;;;1.90;1.90;;;;;;;0.35;57.25;99580.54;102461;1313;108298;-78
2021/12/04 02:20:33;;;;;;;1.90;1.90;;;;;;;0.36;57.24;99583.69;102398;1313;94327;-77
2021/12/04 02:23:05;;;;;;;2.00;2.00;;;;;;;0.33;57.60;99584.20;102418;1317;94678;-77
2021/12/04 02:25:33;;;;;;;2.00;2.00;;;;;;;0.28;57.35;99580.70;102379;1316;107880;-78
2021/12/04 02:28:03;;;;;;;2.00;2.00;;;;;;;0.30;57.53;99578.26;102418;1313;107474;-77
2021/12/04 02:30:34;;;;;;;1.90;1.90;;;;;;;0.33;57.14;99573.38;102293;1316;94981;-77
2021/12/04 02:33:13;;;;;;;1.90;1.90;;;;;;;0.31;57.29;99573.02;102474;1316;94873;-78
2021/12/04 02:35:49;;;;;;;2.30;2.20;;;;;;;0.33;57.52;99573.56;102522;1313;106969;-77
2021/12/04 02:38:22;;;;;;;1.90;1.90;;;;;;;0.34;57.32;99573.02;102334;1313;105998;-77
2021/12/04 02:40:53;;;;;;;2.30;2.20;;;;;;;0.26;57.42;99568.99;102499;1314;94373;-77
2021/12/04 02:43:21;;;;;;;2.30;2.20;;;;;;;0.16;57.39;99563.55;102731;1314;157124;-78
2021/12/04 02:45:49;;;;;;;2.20;2.10;;;;;;;0.18;57.87;99563.39;102550;1317;108903;-77
2021/12/04 02:48:18;;;;;;;1.70;1.70;;;;;;;0.23;58.09;99564.10;102434;1316;107427;-76
2021/12/04 02:50:47;;;;;;;1.80;1.80;;;;;;;0.26;58.07;99562.01;102478;1312;94757;-77
2021/12/04 02:53:17;;;;;;;1.90;1.90;;;;;;;0.20;58.02;99560.07;102534;1313;94707;-77
2021/12/04 02:55:46;;;;;;;1.80;1.80;;;;;;;0.14;58.29;99559.55;102482;1313;107682;-77
2021/12/04 02:58:16;;;;;;;2.00;2.00;;;;;;;0.08;58.48;99546.09;102394;1315;105818;-77
2021/12/04 03:00:51;;;;;;;1.80;1.80;;;;;;;0.06;58.64;99542.41;102537;1312;94467;-78
2021/12/04 03:03:20;;;;;;;1.80;1.80;;;;;;;0.08;58.42;99540.67;102508;1313;94318;-78
2021/12/04 03:05:50;;;;;;;1.80;1.80;;;;;;;0.11;58.55;99545.39;102666;1310;108669;-78
2021/12/04 03:08:22;;;;;;;1.80;1.80;;;;;;;0.14;58.88;99543.48;102582;1317;107443;-79
2021/12/04 03:10:52;;;;;;;2.00;2.00;;;;;;;0.20;58.64;99541.58;102620;1320;94499;-78
2021/12/04 03:13:21;;;;;;;2.20;2.10;;;;;;;0.17;58.42;99535.28;102668;1313;94612;-78
2021/12/04 03:15:57;;;;;;;1.80;1.80;;;;;;;0.14;59.14;99536.33;102553;1316;107873;-77
2021/12/04 03:18:27;;;;;;;1.80;1.80;;;;;;;0.12;58.97;99538.77;102406;1313;107388;-77
2021/12/04 03:20:59;;;;;;;1.70;1.70;;;;;;;0.15;59.16;99533.70;102457;1315;95207;-78
2021/12/04 03:23:33;;;;;;;1.70;1.70;;;;;;;0.17;58.87;99529.35;102587;1317;94603;-77
2021/12/04 03:26:04;;;;;;;1.90;1.90;;;;;;;0.13;59.22;99528.30;102329;1315;107744;-77
2021/12/04 03:28:33;;;;;;;1.90;1.90;;;;;;;0.17;59.37;99518.52;102474;1314;109075;-79
2021/12/04 03:31:18;;;;;;;1.70;1.70;;;;;;;0.20;59.16;99513.46;102487;1314;94960;-77
2021/12/04 03:42:06;;;;;;;1.80;1.80;;;;;;;0.38;59.13;99512.80;102264;1315;94521;-78
2021/12/04 03:44:34;;;;;;;1.70;1.70;;;;;;;0.38;59.09;99505.64;102465;1315;94750;-79
2021/12/04 03:47:03;;;;;;;1.80;1.80;;;;;;;0.35;59.25;99497.95;102495;1313;107759;-78
2021/12/04 03:49:31;;;;;;;1.80;1.80;;;;;;;0.31;59.19;99489.21;102446;1315;107855;-77
2021/12/04 03:51:59;;;;;;;1.80;1.80;;;;;;;0.29;59.41;99486.78;102766;1313;94439;-78
2021/12/04 03:54:28;;;;;;;1.90;1.90;;;;;;;0.28;59.49;99482.93;102316;1313;94756;-78
2021/12/04 03:57:06;;;;;;;1.80;1.80;;;;;;;0.28;59.43;99479.09;102188;1319;107537;-78
2021/12/04 03:59:39;;;;;;;1.70;1.70;;;;;;;0.38;59.29;99475.60;102554;1314;106138;-77
2021/12/04 04:02:09;;;;;;;1.70;1.70;;;;;;;0.37;59.14;99470.71;102344;1313;94476;-77
2021/12/04 04:04:38;;;;;;;1.70;1.70;;;;;;;0.36;59.08;99467.91;102506;1314;94308;-78
2021/12/04 04:07:07;;;;;;;1.80;1.80;;;;;;;0.37;59.18;99468.63;102517;1314;107960;-78
2021/12/04 04:09:36;;;;;;;1.90;1.90;;;;;;;0.39;59.18;99468.09;102517;1314;107433;-78
2021/12/04 04:12:04;;;;;;;1.70;1.70;;;;;;;0.42;59.22;99471.92;102614;1313;94217;-77
2021/12/04 04:14:32;;;;;;;1.70;1.70;;;;;;;0.48;58.94;99471.58;102329;1315;94325;-77
2021/12/04 04:17:00;;;;;;;1.60;1.60;;;;;;;0.44;59.17;99472.46;102546;1316;108816;-78
2021/12/04 04:19:29;;;;;;;1.80;1.80;;;;;;;0.42;58.98;99467.39;102859;1313;106072;-79
2021/12/04 04:21:58;;;;;;;2.30;2.20;;;;;;;0.38;59.27;99464.95;103013;1313;94353;-80
2021/12/04 04:24:27;;;;;;;1.80;1.80;;;;;;;0.32;59.11;99465.66;102935;1313;94370;-79
2021/12/04 04:26:56;;;;;;;1.80;1.80;;;;;;;0.31;59.41;99460.23;102826;1316;108331;-79
2021/12/04 04:29:24;;;;;;;1.70;1.70;;;;;;;0.37;59.41;99454.30;102812;1314;107713;-79
2021/12/04 04:31:55;;;;;;;1.70;1.70;;;;;;;0.38;59.29;99453.24;102870;1317;94160;-79
2021/12/04 04:34:29;;;;;;;1.80;1.80;;;;;;;0.37;59.37;99450.98;102902;1313;94860;-79
2021/12/04 04:59:19;;;;;;;1.60;1.60;;;;;;;0.58;59.34;99424.59;102766;1313;107741;-79
2021/12/04 05:10:50;;;;;;;1.80;1.80;;;;;;;0.60;59.50;99418.30;102713;1313;108038;-79
2021/12/04 05:13:17;;;;;;;1.60;1.60;;;;;;;0.64;59.06;99422.14;102707;1316;108407;-79
2021/12/04 05:21:12;;;;;;;1.70;1.70;;;;;;;0.77;58.98;99415.83;102800;1315;106357;-79
2021/12/04 05:23:46;;;;;;;1.70;1.70;;;;;;;0.70;58.93;99414.45;102761;1316;108469;-79
2021/12/04 05:26:17;;;;;;;1.70;1.70;;;;;;;0.75;59.07;99412.52;102640;1314;94276;-79
2021/12/04 05:28:47;;;;;;;1.50;1.50;;;;;;;0.80;59.28;99411.10;102698;1316;94847;-79
2021/12/04 05:31:15;;;;;;;1.50;1.50;;;;;;;0.91;58.93;99415.08;102630;1316;109040;-79
2021/12/04 05:33:44;;;;;;;1.60;1.60;;;;;;;0.96;58.78;99408.60;102749;1313;108844;-79
2021/12/04 05:36:12;;;;;;;1.60;1.60;;;;;;;0.91;58.49;99409.66;102863;1313;95240;-80
2021/12/04 05:38:40;;;;;;;1.80;1.80;;;;;;;0.89;58.89;99411.59;102673;1314;95094;-78
2021/12/04 05:41:08;;;;;;;1.70;1.70;;;;;;;0.99;58.73;99404.22;102697;1314;107801;-79
2021/12/04 05:43:36;;;;;;;1.60;1.60;;;;;;;1.06;58.41;99401.23;102659;1315;109794;-78
2021/12/04 05:46:14;;;;;;;1.70;1.70;;;;;;;1.07;58.61;99400.00;102627;1315;95249;-78
2021/12/04 05:48:54;;;;;;;1.60;1.60;;;;;;;1.01;58.07;99393.38;102713;1318;95164;-79
2021/12/04 05:54:05;;;;;;;1.70;1.70;;;;;;;0.84;58.52;99389.24;102727;1315;108683;-79
2021/12/04 05:56:35;;;;;;;1.70;1.70;;;;;;;0.83;58.48;99381.56;102488;1314;95615;-78
2021/12/04 05:59:04;;;;;;;1.70;1.70;;;;;;;0.87;58.36;99377.35;102568;1315;95821;-78
2021/12/04 06:01:32;;;;;;;1.70;1.70;;;;;;;0.92;58.37;99371.05;102528;1313;108395;-78
2021/12/04 06:04:00;;;;;;;1.80;1.80;;;;;;;0.92;58.34;99373.50;102156;1317;107781;-78
2021/12/04 06:06:28;;;;;;;1.70;1.70;;;;;;;0.92;58.47;99377.69;102409;1315;96612;-77
2021/12/04 06:09:02;;;;;;;1.70;1.70;;;;;;;0.95;58.15;99381.86;102404;1316;95125;-78
2021/12/04 06:11:31;;;;;;;1.70;1.70;;;;;;;0.92;58.48;99376.11;102434;1317;107892;-78
2021/12/04 06:13:59;;;;;;;1.70;1.70;;;;;;;0.87;58.04;99378.23;102537;1314;110045;-77
2021/12/04 06:16:26;;;;;;;1.60;1.60;;;;;;;0.90;58.09;99381.02;102516;1313;95261;-77
2021/12/04 06:18:55;;;;;;;1.60;1.60;;;;;;;0.93;58.07;99381.52;102322;1316;95245;-77
2021/12/04 06:24:10;;;;;;;1.60;1.60;;;;;;;0.98;58.08;99375.55;102553;1316;107900;-78
2021/12/04 06:26:38;;;;;;;1.60;1.60;;;;;;;1.04;57.90;99381.13;102412;1316;96288;-78
2021/12/04 06:29:06;;;;;;;1.90;1.90;;;;;;;1.00;58.18;99384.12;102634;1313;95258;-78
2021/12/04 06:31:34;;;;;;;1.60;1.60;;;;;;;1.04;58.11;99386.38;102162;1316;108288;-77
2021/12/04 06:34:02;;;;;;;1.60;1.60;;;;;;;1.10;57.87;99391.42;102347;1316;109495;-78
2021/12/04 06:36:30;;;;;;;1.70;1.70;;;;;;;1.12;57.97;99396.13;102441;1315;95567;-78
2021/12/04 06:38:58;;;;;;;1.80;1.80;;;;;;;1.18;57.46;99398.38;102495;1317;97010;-78
2021/12/04 06:41:26;;;;;;;1.70;1.70;;;;;;;1.19;57.40;99401.16;102269;1316;108011;-79
2021/12/04 06:43:55;;;;;;;1.60;1.60;;;;;;;1.20;57.81;99402.04;102630;1313;108861;-78
2021/12/04 06:46:24;;;;;;;1.70;1.70;;;;;;;1.20;57.50;99403.96;102427;1313;95293;-78
2021/12/04 06:49:16;;;;;;;1.60;1.60;;;;;;;1.17;57.44;99397.34;102514;1313;96793;-78
2021/12/04 06:51:49;;;;;;;1.50;1.50;;;;;;;1.19;57.80;99394.70;102526;1313;107912;-79
2021/12/04 06:54:21;;;;;;;1.50;1.50;;;;;;;1.20;57.81;99396.10;102423;1314;107157;-79
2021/12/04 06:56:49;;;;;;;1.50;1.50;;;;;;;1.23;57.51;99398.70;102554;1318;95206;-78
2021/12/04 06:59:24;;;;;;;1.60;1.60;;;;;;;1.27;57.49;99400.96;102462;1315;95796;-75
2021/12/04 07:01:53;;;;;;;1.60;1.60;;;;;;;1.28;57.59;99403.22;102442;1316;106591;-79
2021/12/04 07:04:21;;;;;;;1.60;1.60;;;;;;;1.28;57.57;99398.68;102447;1310;107583;-77
2021/12/04 07:06:50;;;;;;;1.50;1.50;;;;;;;1.28;57.91;99401.48;102493;1314;95683;-78
2021/12/04 07:09:19;;;;;;;1.60;1.60;;;;;;;1.32;57.80;99400.41;102375;1315;95650;-77
2021/12/04 07:11:47;;;;;;;1.50;1.50;;;;;;;1.42;57.36;99399.48;102574;1313;108373;-78
2021/12/04 07:14:15;;;;;;;1.60;1.60;;;;;;;1.53;57.38;99398.91;102405;1315;108849;-78
2021/12/04 07:16:43;;;;;;;1.50;1.50;;;;;;;1.57;57.07;99395.03;102328;1316;95647;-77
2021/12/04 07:19:11;;;;;;;1.50;1.50;;;;;;;1.64;57.02;99393.93;102425;1313;95268;-78
2021/12/04 07:21:40;;;;;;;1.40;1.40;;;;;;;1.63;56.69;99396.23;102292;1313;107885;-77
2021/12/04 07:24:10;;;;;;;1.40;1.40;;;;;;;1.61;56.69;99393.96;102538;1316;108808;-78
2021/12/04 07:26:38;;;;;;;1.50;1.50;;;;;;;1.58;57.34;99392.92;102335;1316;95183;-77
2021/12/04 07:29:07;;;;;;;1.40;1.40;;;;;;;1.61;57.14;99396.94;102336;1315;95595;-77
2021/12/04 07:31:37;;;;;;;1.60;1.60;;;;;;;1.62;56.92;99396.57;102575;1313;107729;-78
2021/12/04 07:34:06;;;;;;;1.50;1.50;;;;;;;1.63;57.01;99397.96;102686;1315;106953;-77
2021/12/04 07:36:34;;;;;;;1.50;1.50;;;;;;;1.63;56.58;99393.23;102222;1315;95185;-77
2021/12/04 07:39:03;;;;;;;1.60;1.60;;;;;;;1.63;56.60;99395.87;102403;1313;95268;-78
2021/12/04 07:41:33;;;;;;;1.60;1.60;;;;;;;1.66;56.63;99393.92;102435;1314;107558;-78
2021/12/04 07:44:01;;;;;;;1.60;1.60;;;;;;;1.74;56.48;99396.68;102397;1315;107391;-78
2021/12/04 07:46:29;;;;;;;1.60;1.60;;;;;;;1.80;55.99;99391.38;102400;1316;95592;-79
2021/12/04 07:48:57;;;;;;;1.40;1.40;;;;;;;1.88;56.06;99390.45;102332;1314;95265;-77
2021/12/04 07:51:25;;;;;;;1.40;1.40;;;;;;;1.92;55.62;99393.92;102152;1316;107816;-77
2021/12/04 07:53:53;;;;;;;1.50;1.50;;;;;;;1.96;55.55;99390.39;102357;1313;109955;-78
2021/12/04 07:56:21;;;;;;;1.40;1.40;;;;;;;1.92;55.36;99392.19;102579;1313;95178;-78
2021/12/04 07:58:49;;;;;;;1.50;1.50;;;;;;;1.89;55.22;99389.58;102239;1315;95246;-77
2021/12/04 08:01:18;;;;;;;1.50;1.50;;;;;;;1.93;55.38;99396.89;102267;1316;108846;-77
2021/12/04 08:03:46;;;;;;;1.40;1.40;;;;;;;1.92;55.58;99393.92;102388;1313;108905;-77
2021/12/04 08:06:14;;;;;;;1.50;1.50;;;;;;;1.98;55.75;99390.20;102380;1313;95712;-78
2021/12/04 08:08:43;;;;;;;1.60;1.60;;;;;;;2.03;55.50;99388.23;102356;1315;97069;-78
2021/12/04 08:11:11;;;;;;;1.40;1.40;;;;;;;2.01;55.37;99387.54;102203;1317;107844;-78
2021/12/04 08:13:39;;;;;;;1.50;1.50;;;;;;;2.02;55.56;99390.70;102190;1316;108797;-79
2021/12/04 08:16:07;;;;;;;1.40;1.40;;;;;;;2.05;55.52;99390.33;102464;1313;95588;-78
2021/12/04 08:18:35;;;;;;;1.60;1.60;;;;;;;2.09;55.73;99388.89;102316;1313;95522;-78
2021/12/04 08:21:02;;;;;;;1.50;1.50;;;;;;;2.09;55.42;99385.23;102472;1313;108558;-78
2021/12/04 08:23:31;;;;;;;1.50;1.50;;;;;;;2.08;55.09;99386.80;102428;1313;107800;-76
2021/12/04 08:25:59;;;;;;;1.80;1.80;;;;;;;2.09;55.58;99385.23;102316;1316;95710;-78
2021/12/04 08:28:27;;;;;;;1.50;1.50;;;;;;;2.12;55.33;99385.18;102205;1316;95588;-77
2021/12/04 08:30:56;;;;;;;1.70;1.70;;;;;;;2.16;55.51;99381.13;102316;1316;107869;-77
2021/12/04 08:33:24;;;;;;;1.40;1.40;;;;;;;2.18;54.99;99382.34;102504;1313;109807;-77
2021/12/04 08:35:52;;;;;;;1.50;1.50;;;;;;;2.20;55.18;99377.94;102381;1317;95764;-78
2021/12/04 08:38:20;;;;;;;1.50;1.50;;;;;;;2.31;55.28;99368.92;102522;1310;96157;-78
2021/12/04 08:40:48;;;;;;;1.50;1.50;;;;;;;2.35;55.00;99363.80;102282;1317;108946;-77
2021/12/04 08:43:16;;;;;;;1.50;1.50;;;;;;;2.32;54.83;99359.44;102429;1312;108792;-77
2021/12/04 08:45:44;;;;;;;1.70;1.70;;;;;;;2.34;54.96;99363.11;102403;1316;95249;-77
2021/12/04 08:48:13;;;;;;;1.40;1.40;;;;;;;2.36;55.07;99360.45;102251;1316;95623;-77
2021/12/04 08:50:41;;;;;;;1.40;1.40;;;;;;;2.40;54.51;99360.23;102445;1313;107399;-77
2021/12/04 08:53:09;;;;;;;1.40;1.40;;;;;;;2.37;54.48;99355.19;102458;1313;108860;-77
2021/12/04 08:55:39;;;;;;;1.40;1.40;;;;;;;2.39;54.86;99357.27;102204;1317;95159;-77
2021/12/04 08:58:08;;;;;;;1.40;1.40;;;;;;;2.45;55.10;99355.65;102801;1310;95169;-78
2021/12/04 09:00:49;;;;;;;1.40;1.40;;;;;;;2.47;55.01;99353.52;102432;1313;108249;-79
2021/12/04 09:03:21;;;;;;;1.30;1.30;;;;;;;2.47;54.88;99349.48;102423;1313;110346;-78
2021/12/04 09:05:51;;;;;;;1.30;1.30;;;;;;;2.46;54.71;99344.95;102046;1319;95336;-77
2021/12/04 09:08:22;;;;;;;1.30;1.30;;;;;;;2.44;54.50;99343.55;102327;1315;95294;-78
2021/12/04 09:10:52;;;;;;;1.30;1.30;;;;;;;2.40;54.64;99345.17;102650;1313;107808;-77
2021/12/04 09:13:21;;;;;;;1.40;1.40;;;;;;;2.43;54.72;99346.90;102232;1316;107860;-78
2021/12/04 09:15:50;;;;;;;1.40;1.40;;;;;;;2.46;54.58;99344.06;102286;1316;95779;-77
2021/12/04 09:18:18;;;;;;;1.40;1.40;;;;;;;2.47;54.29;99342.83;102428;1314;95226;-78
2021/12/04 09:20:47;;;;;;;1.30;1.30;;;;;;;2.47;54.65;99342.48;102349;1317;107810;-78
2021/12/04 09:23:18;;;;;;;1.30;1.30;;;;;;;2.50;54.76;99344.89;102546;1313;108767;-77
2021/12/04 09:25:55;;;;;;;1.40;1.40;;;;;;;2.55;54.25;99342.92;102311;1315;96346;-78
2021/12/04 09:28:28;;;;;;;1.30;1.30;;;;;;;2.56;54.44;99341.14;102530;1315;95811;-78
2021/12/04 09:36:31;;;;;;;1.30;1.30;;;;;;;2.62;54.02;99335.14;102350;1316;95322;-77
2021/12/04 10:01:29;;;;;;;1.30;1.30;;;;;;;2.87;53.53;99329.07;102362;1316;95317;-79
2021/12/04 10:17:56;;;;;;;1.20;1.20;;;;;;;3.17;52.84;99319.20;102330;1316;111128;-78
2021/12/04 10:34:00;;;;;;;1.30;1.30;;;;;;;3.35;52.30;99306.85;102414;1316;95614;-78
2021/12/04 10:36:31;;;;;;;1.30;1.30;;;;;;;3.39;52.09;99302.58;102152;1319;108306;-78
2021/12/04 10:39:00;;;;;;;1.30;1.30;;;;;;;3.42;52.39;99298.15;102402;1313;108764;-77
2021/12/04 10:41:33;;;;;;;1.20;1.20;;;;;;;3.46;52.13;99294.75;102258;1317;95241;-78
2021/12/04 10:44:31;;;;;;;1.40;1.40;;;;;;;3.44;52.05;99295.66;102178;1316;164756;-78
2021/12/04 10:47:08;;;;;;;1.20;1.20;;;;;;;3.43;52.09;99287.25;102403;1316;106874;-77
2021/12/04 10:49:50;;;;;;;1.20;1.20;;;;;;;3.39;51.86;99283.65;102105;1313;108667;-78
2021/12/04 10:55:19;;;;;;;1.40;1.40;;;;;;;3.37;52.31;99273.84;102252;1316;95917;-78
2021/12/04 11:01:00;;;;;;;1.30;1.30;;;;;;;3.43;52.71;99262.52;102437;1316;109844;-77
2021/12/04 12:03:55;;;;;;;1.20;1.20;;;;;;;3.38;53.65;99261.54;99504;1351;648580;-77
2021/12/04 12:06:49;;;;;;;1.20;1.20;;;;;;;3.60;53.33;99257.16;101483;1323;131990;-78
2021/12/04 12:09:26;;;;;;;1.10;1.10;;;;;;;3.61;52.72;99253.27;101988;1324;94341;-77
2021/12/04 12:11:59;;;;;;;1.10;1.10;;;;;;;3.59;52.75;99254.02;101772;1328;93401;-78
2021/12/04 12:14:39;;;;;;;1.20;1.20;;;;;;;3.63;52.91;99250.09;101792;1326;107732;-77
2021/12/04 12:17:08;;;;;;;1.10;1.10;;;;;;;3.67;53.03;99247.73;101651;1324;104763;-77
2021/12/04 12:19:40;;;;;;;1.00;1.00;;;;;;;3.73;52.73;99251.68;101259;1325;138294;-78
2021/12/04 12:22:27;;;;;;;1.10;1.10;;;;;;;3.74;52.89;99249.55;102277;1316;94322;-77
2021/12/04 12:25:06;;;;;;;1.20;1.20;;;;;;;3.80;52.94;99250.32;102170;1316;136557;-79
2021/12/04 12:36:17;;;;;;;1.20;1.20;;;;;;;3.72;53.13;99250.98;102094;1316;108896;-78
2021/12/04 12:38:51;;;;;;;1.20;1.20;;;;;;;3.73;52.99;99250.95;101988;1313;136885;-77
2021/12/04 12:41:43;;;;;;;1.10;1.10;;;;;;;3.74;53.09;99243.76;102097;1317;95233;-78
2021/12/04 12:44:28;;;;;;;1.10;1.10;;;;;;;3.74;53.18;99241.83;102143;1315;136672;-78
2021/12/04 12:47:02;;;;;;;1.10;1.10;;;;;;;3.72;53.08;99242.05;101986;1316;105632;-78
2021/12/04 12:49:37;;;;;;;1.00;1.00;;;;;;;3.72;53.35;99241.16;102184;1315;137008;-77
2021/12/04 12:52:13;;;;;;;1.10;1.10;;;;;;;3.74;53.19;99241.98;102240;1316;94342;-77
2021/12/04 12:55:06;;;;;;;1.10;1.10;;;;;;;3.70;53.39;99242.77;102250;1315;94350;-77
2021/12/04 12:57:40;;;;;;;1.20;1.20;;;;;;;3.72;53.56;99242.04;101984;1316;137080;-77
2021/12/04 13:11:48;;;;;;;1.10;1.10;;;;;;;3.56;53.58;99248.27;102164;1316;106208;-77
2021/12/04 13:14:24;;;;;;;1.30;1.30;;;;;;;3.58;53.69;99244.73;101993;1318;137045;-77
2021/12/04 13:17:03;;;;;;;1.20;1.20;;;;;;;3.55;53.31;99247.23;102339;1315;94250;-77
2021/12/04 13:19:32;;;;;;;1.20;1.20;;;;;;;3.49;53.56;99244.54;102020;1316;137161;-77
2021/12/04 13:22:04;;;;;;;1.20;1.20;;;;;;;3.47;53.59;99242.80;102121;1315;105823;-79
2021/12/04 13:24:36;;;;;;;1.10;1.10;;;;;;;3.47;53.80;99242.63;102222;1316;94381;-78
2021/12/04 13:29:43;;;;;;;1.20;1.20;;;;;;;3.41;53.82;99245.34;102389;1316;106460;-78
2021/12/04 13:32:14;;;;;;;1.20;1.20;;;;;;;3.39;54.23;99246.44;102008;1316;136186;-78
2021/12/04 13:34:43;;;;;;;1.10;1.10;;;;;;;3.38;54.50;99245.39;102180;1316;94762;-79
2021/12/04 13:37:12;;;;;;;1.20;1.20;;;;;;;3.35;55.17;99246.14;101958;1312;94306;-77
2021/12/04 13:39:42;;;;;;;1.20;1.20;;;;;;;3.35;55.52;99253.70;101796;1318;136722;-78
2021/12/04 13:42:10;;;;;;;1.20;1.20;;;;;;;3.29;55.62;99258.16;102257;1318;107068;-78
2021/12/04 13:44:38;;;;;;;1.20;1.20;;;;;;;3.19;56.27;99252.52;102090;1316;136837;-79
2021/12/04 13:47:08;;;;;;;1.10;1.10;;;;;;;3.16;56.59;99252.40;102169;1316;94856;-78
2021/12/04 13:49:54;;;;;;;1.20;1.20;;;;;;;3.17;57.09;99255.54;102094;1316;137227;-78
2021/12/04 13:52:25;;;;;;;1.20;1.20;;;;;;;3.13;58.03;99256.83;102216;1318;107229;-78
2021/12/04 13:55:03;;;;;;;1.10;1.10;;;;;;;3.07;59.05;99251.46;102258;1318;94343;-78
2021/12/04 13:57:31;;;;;;;1.10;1.10;;;;;;;3.02;59.81;99255.04;102327;1316;136395;-78
2021/12/04 13:59:59;;;;;;;1.10;1.10;;;;;;;3.08;60.01;99252.67;102310;1316;108396;-78
2021/12/04 14:02:29;;;;;;;1.00;1.00;;;;;;;3.12;60.50;99251.75;102231;1316;137424;-78
2021/12/04 14:05:05;;;;;;;1.00;1.00;;;;;;;3.07;60.67;99257.79;102365;1317;94236;-79
2021/12/04 14:07:34;;;;;;;1.00;1.00;;;;;;;3.03;61.18;99254.16;102065;1316;137468;-78
2021/12/04 14:10:21;;;;;;;1.20;1.20;;;;;;;2.98;61.24;99252.98;102408;1316;109032;-78
2021/12/04 14:12:49;;;;;;;1.10;1.10;;;;;;;2.94;61.59;99253.77;102459;1316;106369;-78
2021/12/04 14:15:19;;;;;;;1.00;1.00;;;;;;;3.00;61.55;99253.67;102370;1316;136842;-78
2021/12/04 14:17:49;;;;;;;1.10;1.10;;;;;;;3.05;61.49;99249.73;102506;1316;94854;-79
2021/12/04 14:20:23;;;;;;;1.10;1.10;;;;;;;2.93;62.02;99256.56;102416;1315;136688;-78
2021/12/04 14:22:53;;;;;;;1.20;1.20;;;;;;;2.93;62.27;99254.82;102283;1316;105989;-77
2021/12/04 14:25:23;;;;;;;1.10;1.10;;;;;;;2.94;62.90;99262.16;102386;1316;137723;-77
2021/12/04 14:27:56;;;;;;;1.10;1.10;;;;;;;2.91;63.41;99261.34;102449;1317;94411;-78
2021/12/04 14:30:32;;;;;;;1.10;1.10;;;;;;;2.79;64.35;99264.83;102199;1316;109028;-77
2021/12/04 14:33:05;;;;;;;1.10;1.10;;;;;;;2.77;64.87;99266.79;102262;1316;137409;-77
2021/12/04 14:35:36;;;;;;;1.10;1.10;;;;;;;2.80;65.48;99266.38;102256;1316;94368;-78
2021/12/04 14:38:10;;;;;;;1.10;1.10;;;;;;;2.77;66.08;99262.92;102262;1315;136611;-78
2021/12/04 14:40:48;;;;;;;1.30;1.30;;;;;;;2.70;66.17;99267.55;102257;1316;108850;-78
2021/12/04 14:43:19;;;;;;;1.10;1.10;;;;;;;2.62;67.27;99264.52;102166;1316;106912;-78
2021/12/04 14:45:50;;;;;;;1.10;1.10;;;;;;;2.63;67.42;99267.48;102185;1316;137657;-78
2021/12/04 14:48:24;;;;;;;1.20;1.20;;;;;;;2.63;67.80;99272.22;102052;1316;94703;-78
2021/12/04 14:51:04;;;;;;;1.20;1.20;;;;;;;2.55;68.22;99277.20;102143;1317;136724;-78
2021/12/04 14:53:39;;;;;;;1.20;1.20;;;;;;;2.57;68.47;99281.39;102357;1316;106682;-78
2021/12/04 14:56:09;;;;;;;1.10;1.10;;;;;;;2.64;68.27;99279.21;102972;1318;138027;-78
2021/12/04 14:58:37;;;;;;;1.10;1.10;;;;;;;2.70;68.21;99279.32;102673;1316;94257;-78
2021/12/04 15:01:12;;;;;;;1.20;1.20;;;;;;;2.65;68.50;99280.94;102216;1315;109012;-78
2021/12/04 15:03:51;;;;;;;1.10;1.10;;;;;;;2.55;68.85;99277.03;102283;1317;137437;-78
2021/12/04 15:06:21;;;;;;;1.10;1.10;;;;;;;2.64;68.68;99278.86;102256;1316;94339;-78
2021/12/04 15:09:02;;;;;;;1.10;1.10;;;;;;;2.68;68.48;99279.16;102097;1316;138568;-77
2021/12/04 15:11:34;;;;;;;1.20;1.20;;;;;;;2.64;68.63;99283.06;102094;1316;108938;-78
2021/12/04 15:14:13;;;;;;;1.10;1.10;;;;;;;2.68;68.57;99283.01;102109;1318;139630;-78
2021/12/04 15:16:47;;;;;;;1.10;1.10;;;;;;;2.70;68.69;99284.58;102470;1314;95311;-78